Time;durP1;ratioP1;P1;durP2;ratioP2;P2;SDS_P1;SDS_P2;PMS_P1;PMS_P2;Temp;Humidity;BMP_temperature;BMP_pressure;BME280_temperature;BME280_humidity;BME280_pressure;Samples;Min_cycle;Max_cycle;Signal;HPM_P1;HPM_P2
2021/04/02 00:00:23;;;;;;;6.93;4.60;;;3.40;94.70;;;;;;5107664;28;20030;-77
2021/04/02 00:02:49;;;;;;;6.50;4.60;;;3.40;94.90;;;;;;5107557;28;20103;-78
2021/04/02 00:05:18;;;;;;;6.13;5.00;;;3.50;94.90;;;;;;5087178;28;20055;-77
2021/04/02 00:07:45;;;;;;;5.40;4.47;;;3.50;94.90;;;;;;5088951;28;20480;-78
2021/04/02 00:10:18;;;;;;;6.00;4.53;;;3.40;94.70;;;;;;5102856;28;20050;-79
2021/04/02 00:12:45;;;;;;;7.25;5.50;;;3.40;94.90;;;;;;5106368;28;20035;-78
2021/04/02 00:15:14;;;;;;;8.20;5.90;;;3.40;95.00;;;;;;5101708;28;20065;-79
2021/04/02 00:17:40;;;;;;;11.48;6.10;;;3.50;95.00;;;;;;5098946;28;20017;-80
2021/04/02 00:20:08;;;;;;;6.22;5.07;;;3.50;94.60;;;;;;5066263;28;20089;-79
2021/04/02 00:22:35;;;;;;;7.75;6.45;;;3.40;94.60;;;;;;5104780;28;20016;-77
2021/04/02 00:25:00;;;;;;;8.13;6.57;;;3.40;94.80;;;;;;5100225;28;20107;-79
2021/04/02 00:27:26;;;;;;;10.00;5.78;;;3.40;94.90;;;;;;5099592;28;20019;-79
2021/04/02 00:29:52;;;;;;;7.43;6.05;;;3.40;94.90;;;;;;5107126;28;20032;-77
2021/04/02 00:32:18;;;;;;;11.63;6.10;;;3.40;94.90;;;;;;5100996;28;20040;-78
2021/04/02 00:34:44;;;;;;;9.77;5.50;;;3.40;94.90;;;;;;5101821;28;20407;-76
2021/04/02 00:37:10;;;;;;;6.78;5.35;;;3.40;94.90;;;;;;5084479;28;20023;-77
2021/04/02 00:39:36;;;;;;;5.95;5.35;;;3.40;95.20;;;;;;5097431;28;20380;-77
2021/04/02 00:42:01;;;;;;;8.43;6.10;;;3.30;95.00;;;;;;5093521;28;20092;-76
2021/04/02 00:44:29;;;;;;;8.55;6.70;;;3.30;95.20;;;;;;5093481;28;20016;-77
2021/04/02 00:46:55;;;;;;;7.10;6.15;;;3.30;95.20;;;;;;5093163;28;20031;-77
2021/04/02 00:49:20;;;;;;;9.05;5.93;;;3.30;95.10;;;;;;5093234;28;20050;-79
2021/04/02 00:51:46;;;;;;;8.60;5.90;;;3.30;95.10;;;;;;5092905;28;20146;-77
2021/04/02 00:54:12;;;;;;;7.50;5.45;;;3.20;95.10;;;;;;5093994;28;20062;-79
2021/04/02 00:56:38;;;;;;;7.32;5.82;;;3.20;95.10;;;;;;5074830;28;20437;-77
2021/04/02 00:59:05;;;;;;;12.85;7.60;;;3.20;95.30;;;;;;5093106;28;20020;-77
2021/04/02 01:01:30;;;;;;;7.83;6.67;;;3.30;95.40;;;;;;5093247;28;20020;-75
2021/04/02 01:03:56;;;;;;;8.20;6.70;;;3.30;95.30;;;;;;5094069;28;20027;-77
2021/04/02 01:06:29;;;;;;;8.38;6.65;;;3.30;95.30;;;;;;5093414;28;20439;-76
2021/04/02 01:08:56;;;;;;;15.88;6.45;;;3.40;95.30;;;;;;5092612;28;20118;-78
2021/04/02 01:11:24;;;;;;;9.48;6.18;;;3.50;95.10;;;;;;5092818;28;20035;-77
2021/04/02 01:13:54;;;;;;;9.27;5.97;;;3.50;95.00;;;;;;5092660;28;20028;-77
2021/04/02 01:16:27;;;;;;;9.85;7.15;;;3.40;94.90;;;;;;5092824;28;20024;-76
2021/04/02 01:19:05;;;;;;;9.60;7.32;;;3.50;95.10;;;;;;5095583;28;20491;-76
2021/04/02 01:21:32;;;;;;;10.13;7.43;;;3.60;95.10;;;;;;5101961;28;20081;-77
2021/04/02 01:24:04;;;;;;;9.00;7.15;;;3.60;95.10;;;;;;5095398;28;20016;-78
2021/04/02 01:26:36;;;;;;;8.65;6.85;;;3.60;94.90;;;;;;5102901;28;20035;-77
2021/04/02 01:29:12;;;;;;;10.02;5.65;;;3.60;94.60;;;;;;5092406;28;20020;-76
2021/04/02 01:31:41;;;;;;;7.30;5.22;;;3.40;94.60;;;;;;5093052;28;20035;-77
2021/04/02 01:34:08;;;;;;;9.90;7.35;;;3.30;94.70;;;;;;5085029;28;20024;-77
2021/04/02 01:36:36;;;;;;;;;;;3.20;94.90;;;;;;5092953;28;20046;-76
2021/04/02 01:39:04;;;;;;;11.07;7.75;;;3.10;95.00;;;;;;5085610;28;19908;-78
2021/04/02 01:41:32;;;;;;;9.70;8.02;;;3.10;95.20;;;;;;5090224;28;20057;-77
2021/04/02 01:44:00;;;;;;;9.88;7.78;;;3.10;95.00;;;;;;5093495;28;20020;-77
2021/04/02 01:46:27;;;;;;;10.65;8.10;;;3.10;95.10;;;;;;5092841;28;20116;-76
2021/04/02 01:48:59;;;;;;;13.52;7.60;;;3.10;95.10;;;;;;5092274;28;20377;-76
2021/04/02 01:51:26;;;;;;;13.45;8.05;;;3.20;95.10;;;;;;5091852;28;20043;-77
2021/04/02 01:53:57;;;;;;;11.05;7.97;;;3.20;95.10;;;;;;5092049;28;20074;-74
2021/04/02 01:56:24;;;;;;;8.50;7.05;;;3.30;95.20;;;;;;5092304;28;20028;-76
2021/04/02 01:58:51;;;;;;;10.35;7.68;;;3.20;94.90;;;;;;5092246;28;20077;-76
2021/04/02 02:01:21;;;;;;;10.27;7.32;;;3.10;94.90;;;;;;5092423;28;20450;-77
2021/04/02 02:03:54;;;;;;;9.45;7.78;;;3.10;95.00;;;;;;5092411;28;20054;-76
2021/04/02 02:06:24;;;;;;;9.52;6.90;;;3.10;95.20;;;;;;5092064;28;20047;-76
2021/04/02 02:08:52;;;;;;;11.35;8.45;;;3.10;95.10;;;;;;5091887;28;20090;-76
2021/04/02 02:11:19;;;;;;;12.82;8.93;;;3.00;95.00;;;;;;5091900;28;20036;-75
2021/04/02 02:13:58;;;;;;;10.68;8.77;;;3.00;95.10;;;;;;5092182;28;20062;-76
2021/04/02 02:16:28;;;;;;;11.18;8.32;;;3.10;95.20;;;;;;5092067;28;20457;-75
2021/04/02 02:18:56;;;;;;;12.23;9.70;;;3.20;95.20;;;;;;5092221;28;20020;-77
2021/04/02 02:21:23;;;;;;;12.70;10.10;;;3.20;95.10;;;;;;5092080;28;20066;-75
2021/04/02 02:23:49;;;;;;;12.35;9.00;;;3.10;95.00;;;;;;5092540;28;20441;-76
2021/04/02 02:26:16;;;;;;;13.88;9.23;;;3.20;95.00;;;;;;5093047;28;20024;-77
2021/04/02 02:28:43;;;;;;;11.98;8.85;;;3.10;94.60;;;;;;5074126;28;20023;-76
2021/04/02 02:31:09;;;;;;;15.15;8.77;;;3.10;94.70;;;;;;5092050;28;20036;-76
2021/04/02 02:33:35;;;;;;;11.70;9.05;;;3.00;94.70;;;;;;5091964;28;20384;-75
2021/04/02 02:36:02;;;;;;;12.13;9.23;;;2.90;94.80;;;;;;5073577;28;20382;-76
2021/04/02 02:38:29;;;;;;;12.93;8.80;;;2.80;94.80;;;;;;5091828;28;20021;-75
2021/04/02 02:40:55;;;;;;;10.53;8.47;;;2.70;95.10;;;;;;5092114;28;20050;-77
2021/04/02 02:43:22;;;;;;;12.20;9.60;;;2.70;95.20;;;;;;5091563;28;20031;-74
2021/04/02 02:45:48;;;;;;;10.40;7.82;;;2.80;95.30;;;;;;5092103;28;20024;-75
2021/04/02 02:48:14;;;;;;;12.70;8.10;;;2.80;95.30;;;;;;5092070;28;20230;-75
2021/04/02 02:50:44;;;;;;;11.15;8.77;;;2.80;95.30;;;;;;5091603;28;20016;-75
2021/04/02 02:53:14;;;;;;;10.90;8.50;;;2.90;95.10;;;;;;5092966;28;20043;-76
2021/04/02 02:55:41;;;;;;;11.95;8.00;;;2.80;94.90;;;;;;5095288;28;20016;-76
2021/04/02 02:58:07;;;;;;;;;;;2.80;95.00;;;;;;5077723;28;20151;-74
2021/04/02 03:00:41;;;;;;;12.55;7.95;;;2.70;94.90;;;;;;5095444;28;19904;-77
2021/04/02 03:03:15;;;;;;;9.88;7.85;;;2.70;95.00;;;;;;5095672;28;20373;-76
2021/04/02 03:05:47;;;;;;;12.68;8.18;;;2.60;95.00;;;;;;5096913;28;20016;-75
2021/04/02 03:08:17;;;;;;;12.70;9.30;;;2.60;95.00;;;;;;5095259;28;20066;-76
2021/04/02 03:10:43;;;;;;;11.90;7.60;;;2.50;95.20;;;;;;5095103;28;20512;-77
2021/04/02 03:13:09;;;;;;;9.55;7.03;;;2.50;95.50;;;;;;5095367;28;20389;-77
2021/04/02 03:15:36;;;;;;;10.43;7.13;;;2.60;95.60;;;;;;5088889;28;20016;-75
2021/04/02 03:18:05;;;;;;;8.85;6.45;;;2.60;95.60;;;;;;5084947;28;20381;-77
2021/04/02 03:20:34;;;;;;;7.55;5.47;;;2.70;95.50;;;;;;5075166;28;20024;-76
2021/04/02 03:23:02;;;;;;;5.65;4.47;;;2.70;95.50;;;;;;5094862;28;20023;-77
2021/04/02 03:25:29;;;;;;;6.25;5.15;;;2.70;95.40;;;;;;5076932;28;20024;-76
2021/04/02 03:27:56;;;;;;;6.38;4.25;;;2.70;95.10;;;;;;5095063;28;20546;-75
2021/04/02 03:30:24;;;;;;;7.30;5.10;;;2.60;95.10;;;;;;5094625;28;20027;-75
2021/04/02 03:33:12;;;;;;;6.95;5.05;;;2.60;95.20;;;;;;5076680;28;20111;-77
2021/04/02 03:35:40;;;;;;;5.93;4.90;;;2.50;95.40;;;;;;5094872;28;20421;-75
2021/04/02 03:38:07;;;;;;;;;;;2.50;95.30;;;;;;5095547;28;20040;-76
2021/04/02 03:40:34;;;;;;;8.32;5.63;;;2.60;95.20;;;;;;5095285;28;19998;-76
2021/04/02 03:43:04;;;;;;;6.97;5.15;;;2.50;95.40;;;;;;5094474;28;20064;-76
2021/04/02 03:45:31;;;;;;;8.10;6.18;;;2.60;95.40;;;;;;5094335;28;20376;-76
2021/04/02 03:47:58;;;;;;;11.65;6.97;;;2.60;95.40;;;;;;5094588;28;20042;-75
2021/04/02 03:50:27;;;;;;;;;;;2.70;95.40;;;;;;5094865;28;20438;-75
2021/04/02 03:53:19;;;;;;;11.02;9.02;;;2.70;95.20;;;;;;5094325;28;19912;-76
2021/04/02 03:55:46;;;;;;;13.38;9.77;;;2.70;95.20;;;;;;5095773;28;20016;-77
2021/04/02 03:58:13;;;;;;;;;;;2.70;95.20;;;;;;5094629;28;20016;-77
2021/04/02 04:00:52;;;;;;;13.82;9.60;;;2.70;95.10;;;;;;5094017;28;19912;-76
2021/04/02 04:03:18;;;;;;;15.93;9.98;;;2.70;95.20;;;;;;5075975;28;20024;-76
2021/04/02 04:05:48;;;;;;;12.63;9.55;;;2.70;95.30;;;;;;5093078;28;20032;-75
2021/04/02 04:08:15;;;;;;;11.73;8.20;;;2.70;95.40;;;;;;5094010;28;20048;-77
2021/04/02 04:10:43;;;;;;;9.70;7.97;;;2.70;95.40;;;;;;5093474;28;20048;-76
2021/04/02 04:13:12;;;;;;;11.23;8.70;;;2.60;95.10;;;;;;5093951;28;20428;-78
2021/04/02 04:15:41;;;;;;;12.57;8.70;;;2.50;95.00;;;;;;5093796;28;20206;-79
2021/04/02 04:18:12;;;;;;;12.50;8.20;;;2.30;95.30;;;;;;5093846;28;20107;-76
2021/04/02 04:20:39;;;;;;;10.82;8.43;;;2.40;95.60;;;;;;5093841;28;20028;-77
2021/04/02 04:23:06;;;;;;;;;;;2.30;95.10;;;;;;5094358;28;20078;-76
2021/04/02 04:25:33;;;;;;;11.00;7.53;;;2.20;95.10;;;;;;5093803;28;19999;-77
2021/04/02 04:28:00;;;;;;;12.88;8.45;;;2.10;95.40;;;;;;5075574;28;20032;-76
2021/04/02 04:30:27;;;;;;;11.40;9.00;;;2.20;95.80;;;;;;5093875;28;20052;-77
2021/04/02 04:32:55;;;;;;;13.63;9.05;;;2.20;95.90;;;;;;5094588;28;20468;-77
2021/04/02 04:35:22;;;;;;;15.27;10.10;;;2.20;96.00;;;;;;5093432;28;20097;-77
2021/04/02 04:37:49;;;;;;;16.33;11.40;;;2.30;96.00;;;;;;5093537;28;20032;-78
2021/04/02 04:40:18;;;;;;;20.05;12.00;;;2.40;95.90;;;;;;5093466;28;20021;-78
2021/04/02 04:42:46;;;;;;;13.40;9.73;;;2.30;95.40;;;;;;5093481;28;20489;-77
2021/04/02 04:45:15;;;;;;;17.83;10.90;;;1.70;95.00;;;;;;5093316;28;20024;-77
2021/04/02 04:47:41;;;;;;;21.52;13.43;;;1.30;95.70;;;;;;5093336;28;20016;-76
2021/04/02 04:50:08;;;;;;;20.13;14.30;;;1.10;96.30;;;;;;5093446;28;20031;-78
2021/04/02 04:52:38;;;;;;;21.00;13.45;;;1.00;96.80;;;;;;5075041;28;20032;-75
2021/04/02 04:55:08;;;;;;;20.58;14.00;;;1.00;97.10;;;;;;5093032;28;20024;-78
2021/04/02 04:57:37;;;;;;;23.02;15.20;;;1.00;97.30;;;;;;5093046;28;20016;-77
2021/04/02 05:00:05;;;;;;;25.23;14.90;;;1.00;97.40;;;;;;5093025;28;20024;-78
2021/04/02 05:02:33;;;;;;;27.65;19.05;;;1.10;97.40;;;;;;5092906;28;20023;-78
2021/04/02 05:05:01;;;;;;;29.80;18.73;;;1.20;97.20;;;;;;5074914;28;20039;-79
2021/04/02 05:07:30;;;;;;;33.15;18.80;;;1.20;97.30;;;;;;5092588;28;20025;-78
2021/04/02 05:09:58;;;;;;;29.17;20.60;;;1.20;97.30;;;;;;5074340;28;20386;-79
2021/04/02 05:12:26;;;;;;;29.50;19.85;;;1.10;97.20;;;;;;5092481;28;20035;-78
2021/04/02 05:14:53;;;;;;;30.25;18.70;;;1.20;97.50;;;;;;5093235;28;20030;-79
2021/04/02 05:17:20;;;;;;;34.25;22.83;;;1.30;97.40;;;;;;5075351;28;20489;-78
2021/04/02 05:19:47;;;;;;;28.55;19.33;;;1.40;97.20;;;;;;5093663;28;20031;-79
2021/04/02 05:22:13;;;;;;;31.20;20.55;;;1.60;97.20;;;;;;5092770;28;20039;-80
2021/04/02 05:24:39;;;;;;;26.65;18.90;;;1.60;97.00;;;;;;5093516;28;20023;-78
2021/04/02 05:27:05;;;;;;;25.90;16.63;;;1.70;96.90;;;;;;5092666;28;20468;-79
2021/04/02 05:29:31;;;;;;;28.98;16.75;;;1.70;96.70;;;;;;5092554;28;20059;-77
2021/04/02 05:31:58;;;;;;;23.45;16.23;;;1.80;96.70;;;;;;5092383;28;20036;-78
2021/04/02 05:34:24;;;;;;;25.87;18.03;;;1.90;96.70;;;;;;5092073;28;20020;-76
2021/04/02 05:36:50;;;;;;;28.33;18.33;;;2.00;96.60;;;;;;5074312;28;20111;-79
2021/04/02 05:39:16;;;;;;;27.90;17.30;;;2.00;96.50;;;;;;5093092;28;20427;-80
2021/04/02 05:41:53;;;;;;;23.65;17.05;;;2.10;96.40;;;;;;5092208;28;20016;-80
2021/04/02 05:44:26;;;;;;;27.10;18.38;;;2.20;96.20;;;;;;5074309;28;20027;-79
2021/04/02 05:46:53;;;;;;;29.98;21.63;;;2.20;96.10;;;;;;5091970;28;20477;-79
2021/04/02 05:49:21;;;;;;;29.67;17.38;;;2.30;96.00;;;;;;5092266;28;20059;-79
2021/04/02 05:51:49;;;;;;;23.98;15.38;;;2.20;95.60;;;;;;5073713;28;20064;-78
2021/04/02 05:54:23;;;;;;;22.27;14.45;;;2.00;95.80;;;;;;5092070;28;20540;-79
2021/04/02 05:56:51;;;;;;;25.75;15.25;;;1.80;96.20;;;;;;5092255;28;20115;-80
2021/04/02 05:59:19;;;;;;;19.15;12.00;;;1.80;96.50;;;;;;5091729;28;20024;-80
2021/04/02 06:01:45;;;;;;;21.98;12.90;;;1.80;96.60;;;;;;5090671;28;20072;-79
2021/04/02 06:04:12;;;;;;;18.40;11.10;;;1.80;96.50;;;;;;5091569;28;20073;-81
2021/04/02 06:06:39;;;;;;;18.13;11.00;;;1.90;96.50;;;;;;5092161;28;20374;-78
2021/04/02 06:09:06;;;;;;;12.65;10.68;;;1.90;96.80;;;;;;5092121;28;20046;-80
2021/04/02 06:11:33;;;;;;;12.23;9.00;;;2.00;96.90;;;;;;5089479;28;20101;-83
2021/04/02 06:13:58;;;;;;;13.10;9.18;;;2.20;96.90;;;;;;5089209;28;20081;-86
2021/04/02 06:16:24;;;;;;;12.35;8.73;;;2.40;97.00;;;;;;5075958;28;20024;-87
2021/04/02 06:18:56;;;;;;;12.55;8.98;;;2.70;97.10;;;;;;5097178;28;20100;-91
2021/04/02 06:21:25;;;;;;;11.10;8.00;;;2.70;96.80;;;;;;5086103;28;20032;-85
2021/04/02 06:23:53;;;;;;;10.82;7.43;;;2.80;96.80;;;;;;5080554;28;20061;-93
2021/04/02 06:26:19;;;;;;;13.32;8.88;;;2.70;97.10;;;;;;5096078;28;20085;-84
2021/04/02 06:28:46;;;;;;;16.63;9.48;;;2.90;97.50;;;;;;5079963;28;20031;-85
2021/04/02 06:31:14;;;;;;;12.45;9.27;;;2.90;97.20;;;;;;5100291;28;20608;-89
2021/04/02 06:33:54;;;;;;;11.02;9.30;;;2.90;97.50;;;;;;5101234;28;20424;-88
2021/04/02 06:36:28;;;;;;;10.02;8.23;;;3.10;97.50;;;;;;5098483;28;20392;-81
2021/04/02 06:39:05;;;;;;;11.18;8.60;;;3.30;97.30;;;;;;5096399;28;20077;-82
2021/04/02 06:41:33;;;;;;;10.48;7.75;;;3.50;97.00;;;;;;5077648;28;20333;-82
2021/04/02 06:44:01;;;;;;;9.52;8.07;;;3.60;96.00;;;;;;5095784;28;20055;-83
2021/04/02 06:46:34;;;;;;;15.95;10.38;;;3.60;95.70;;;;;;5098165;28;20423;-82
2021/04/02 06:49:13;;;;;;;12.63;9.38;;;3.70;95.00;;;;;;5096816;28;20442;-82
2021/04/02 06:51:41;;;;;;;13.40;10.52;;;3.80;94.90;;;;;;5096123;28;20507;-83
2021/04/02 06:54:08;;;;;;;12.23;8.43;;;4.10;95.00;;;;;;5095870;28;20457;-83
2021/04/02 06:56:35;;;;;;;11.50;8.07;;;4.40;94.60;;;;;;5095621;28;20081;-83
2021/04/02 06:59:02;;;;;;;17.08;8.80;;;4.30;94.50;;;;;;5095329;28;20538;-83
2021/04/02 07:01:32;;;;;;;10.45;7.90;;;4.30;94.80;;;;;;5077332;28;20039;-83
2021/04/02 07:03:59;;;;;;;9.57;7.97;;;4.60;94.50;;;;;;5095238;28;20032;-83
2021/04/02 07:06:29;;;;;;;10.18;7.22;;;5.00;93.70;;;;;;5095371;28;20024;-82
2021/04/02 07:08:59;;;;;;;14.00;7.53;;;5.00;93.10;;;;;;5095253;28;20512;-83
2021/04/02 07:11:25;;;;;;;24.48;8.10;;;5.10;92.20;;;;;;5096158;28;20109;-83
2021/04/02 07:13:54;;;;;;;16.13;9.52;;;5.00;92.20;;;;;;5095456;28;20012;-82
2021/04/02 07:16:22;;;;;;;9.00;6.40;;;4.90;91.80;;;;;;5095265;28;20031;-83
2021/04/02 07:18:49;;;;;;;8.57;5.38;;;4.60;92.30;;;;;;5095293;28;20027;-82
2021/04/02 07:21:17;;;;;;;10.02;5.68;;;4.60;91.70;;;;;;5094980;28;20057;-83
2021/04/02 07:23:43;;;;;;;5.00;4.07;;;4.40;92.10;;;;;;5095480;28;20447;-82
2021/04/02 07:26:10;;;;;;;5.15;4.30;;;4.40;92.40;;;;;;5076795;28;20020;-82
2021/04/02 07:28:40;;;;;;;3.72;2.72;;;4.40;92.10;;;;;;5095085;28;20073;-82
2021/04/02 07:31:07;;;;;;;5.70;3.67;;;4.50;91.50;;;;;;5094823;28;20385;-83
2021/04/02 07:33:36;;;;;;;4.70;3.47;;;4.30;91.70;;;;;;5094799;28;20024;-84
2021/04/02 07:36:04;;;;;;;7.00;3.65;;;4.30;91.80;;;;;;5094631;28;20035;-83
2021/04/02 07:38:39;;;;;;;4.68;3.53;;;4.10;91.70;;;;;;5094262;28;20024;-83
2021/04/02 07:41:10;;;;;;;5.90;3.65;;;4.20;91.80;;;;;;5071987;28;20023;-83
2021/04/02 07:43:50;;;;;;;6.28;3.88;;;4.50;91.90;;;;;;5072768;28;20471;-83
2021/04/02 07:46:21;;;;;;;6.55;4.97;;;4.40;90.50;;;;;;5095118;28;20465;-82
2021/04/02 07:48:59;;;;;;;8.05;4.75;;;4.30;91.30;;;;;;5076092;28;20032;-84
2021/04/02 07:51:46;;;;;;;8.10;5.30;;;4.20;91.60;;;;;;5094846;28;20031;-82
2021/04/02 07:54:33;;;;;;;8.88;6.03;;;4.20;91.70;;;;;;5094496;28;20417;-83
2021/04/02 07:57:25;;;;;;;8.25;6.57;;;4.30;91.90;;;;;;5094056;28;20052;-82
2021/04/02 07:59:51;;;;;;;10.13;8.00;;;4.40;91.80;;;;;;5094849;28;20024;-82
2021/04/02 08:02:27;;;;;;;10.52;8.25;;;4.50;91.20;;;;;;5094282;28;20031;-82
2021/04/02 08:04:56;;;;;;;7.32;6.18;;;4.30;91.00;;;;;;5081122;28;20028;-81
2021/04/02 08:07:37;;;;;;;7.82;4.80;;;4.40;91.10;;;;;;5096523;28;20059;-82
2021/04/02 08:10:14;;;;;;;5.13;3.33;;;4.40;91.30;;;;;;5094260;28;20052;-83
2021/04/02 08:12:41;;;;;;;5.13;3.70;;;4.30;91.10;;;;;;5094803;28;20481;-81
2021/04/02 08:15:09;;;;;;;4.57;3.42;;;4.40;91.30;;;;;;5099747;28;20028;-81
2021/04/02 08:17:36;;;;;;;6.63;3.70;;;4.50;90.00;;;;;;5096859;28;20377;-84
2021/04/02 08:20:09;;;;;;;4.67;3.43;;;4.30;90.40;;;;;;5094635;28;20166;-82
2021/04/02 08:22:36;;;;;;;6.68;4.30;;;4.20;90.80;;;;;;5094116;28;20724;-82
2021/04/02 08:25:08;;;;;;;5.88;3.60;;;4.10;91.10;;;;;;5096318;28;20060;-82
2021/04/02 08:27:33;;;;;;;4.97;4.03;;;4.10;91.30;;;;;;5104115;28;20057;-81
2021/04/02 08:30:03;;;;;;;5.30;4.43;;;4.30;91.50;;;;;;5082999;28;20024;-82
2021/04/02 08:32:40;;;;;;;8.13;4.88;;;4.30;90.70;;;;;;5076846;28;20055;-82
2021/04/02 08:35:08;;;;;;;7.10;4.50;;;4.30;90.50;;;;;;5093873;28;20027;-82
2021/04/02 08:37:34;;;;;;;5.80;5.18;;;4.20;90.20;;;;;;5093926;28;20027;-82
2021/04/02 08:40:05;;;;;;;6.13;3.92;;;4.20;90.70;;;;;;5093769;28;20016;-82
2021/04/02 08:42:32;;;;;;;5.47;3.80;;;4.30;90.30;;;;;;5093797;28;20032;-82
2021/04/02 08:45:06;;;;;;;7.25;3.60;;;4.30;90.10;;;;;;5094039;28;20081;-80
2021/04/02 08:47:31;;;;;;;4.25;3.70;;;4.20;90.00;;;;;;5093897;28;20520;-81
2021/04/02 08:49:57;;;;;;;6.07;3.42;;;4.20;90.20;;;;;;5093860;28;20028;-81
2021/04/02 08:52:25;;;;;;;13.18;3.97;;;4.30;90.10;;;;;;5093475;28;20035;-83
2021/04/02 08:54:54;;;;;;;7.30;5.55;;;4.30;90.00;;;;;;5094327;28;20016;-82
2021/04/02 08:57:23;;;;;;;10.30;4.25;;;4.40;90.00;;;;;;5093761;28;20102;-83
2021/04/02 08:59:50;;;;;;;6.00;3.38;;;4.40;90.00;;;;;;5093282;28;20388;-81
2021/04/02 09:02:17;;;;;;;4.13;3.15;;;4.40;90.10;;;;;;5075307;28;20465;-82
2021/04/02 09:04:44;;;;;;;5.10;3.10;;;4.60;89.90;;;;;;5093107;28;20070;-83
2021/04/02 09:07:13;;;;;;;5.97;3.63;;;4.60;89.30;;;;;;5092756;28;20024;-81
2021/04/02 09:09:45;;;;;;;4.60;2.97;;;4.70;89.00;;;;;;5092924;28;20044;-82
2021/04/02 09:12:15;;;;;;;3.95;3.45;;;4.80;88.70;;;;;;5093585;28;20024;-82
2021/04/02 09:14:46;;;;;;;5.20;2.63;;;4.80;88.00;;;;;;5081209;28;20016;-81
2021/04/02 09:17:23;;;;;;;6.65;2.65;;;4.80;88.00;;;;;;5095115;28;20081;-80
2021/04/02 09:19:58;;;;;;;3.55;1.95;;;4.90;87.00;;;;;;5088875;28;20051;-85
2021/04/02 09:22:24;;;;;;;1.70;1.40;;;5.10;86.10;;;;;;5088466;28;20024;-83
2021/04/02 09:24:51;;;;;;;5.95;2.90;;;5.00;85.40;;;;;;5094461;28;20076;-82
2021/04/02 09:27:22;;;;;;;4.60;2.55;;;5.20;86.00;;;;;;5093894;28;20039;-83
2021/04/02 09:29:58;;;;;;;4.13;2.47;;;5.30;84.40;;;;;;5094894;28;20028;-80
2021/04/02 09:32:28;;;;;;;3.55;2.03;;;5.30;84.50;;;;;;5095954;28;20469;-82
2021/04/02 09:35:02;;;;;;;5.65;2.60;;;5.40;84.80;;;;;;5092947;28;20424;-83
2021/04/02 09:37:29;;;;;;;4.68;1.98;;;5.40;84.60;;;;;;5092996;28;20503;-82
2021/04/02 09:40:08;;;;;;;4.63;3.63;;;5.20;83.80;;;;;;5093046;28;20023;-83
2021/04/02 09:42:36;;;;;;;7.18;3.67;;;5.10;85.30;;;;;;5096386;28;20376;-81
2021/04/02 09:45:10;;;;;;;5.35;3.05;;;5.30;85.70;;;;;;5095956;28;20142;-82
2021/04/02 09:47:47;;;;;;;6.65;3.15;;;5.60;84.80;;;;;;5075141;28;20020;-82
2021/04/02 09:50:15;;;;;;;7.75;2.88;;;5.80;83.50;;;;;;5092436;28;20111;-82
2021/04/02 09:52:45;;;;;;;4.32;2.60;;;5.90;83.10;;;;;;5088326;28;20060;-83
2021/04/02 09:55:12;;;;;;;2.75;2.38;;;6.50;83.00;;;;;;5086081;28;20027;-81
2021/04/02 09:57:41;;;;;;;5.25;3.58;;;6.90;81.10;;;;;;5074306;28;20035;-85
2021/04/02 10:00:18;;;;;;;4.80;3.33;;;7.20;77.90;;;;;;5092638;28;20051;-83
2021/04/02 10:02:43;;;;;;;6.17;3.60;;;7.10;77.60;;;;;;5060422;28;20028;-83
2021/04/02 10:05:18;;;;;;;4.50;3.47;;;7.00;77.90;;;;;;5096562;28;20380;-82
2021/04/02 10:07:46;;;;;;;13.10;5.18;;;7.10;77.90;;;;;;5096817;28;20016;-81
2021/04/02 10:10:13;;;;;;;11.40;3.97;;;7.10;76.60;;;;;;5096358;28;20032;-82
2021/04/02 10:12:38;;;;;;;6.20;4.13;;;7.10;77.70;;;;;;5096594;28;20066;-82
2021/04/02 10:15:05;;;;;;;9.10;3.20;;;7.40;76.50;;;;;;5079213;28;20024;-82
2021/04/02 10:17:31;;;;;;;5.07;3.50;;;7.40;75.50;;;;;;5097046;28;20048;-81
2021/04/02 10:19:57;;;;;;;4.97;3.42;;;7.10;76.30;;;;;;5098087;28;20012;-83
2021/04/02 10:22:23;;;;;;;5.70;3.67;;;7.10;76.90;;;;;;5096526;28;20024;-81
2021/04/02 10:24:51;;;;;;;5.05;3.53;;;7.30;76.10;;;;;;5096192;28;20437;-82
2021/04/02 10:27:17;;;;;;;5.30;3.78;;;7.40;75.10;;;;;;5077982;28;20031;-82
2021/04/02 10:29:43;;;;;;;4.88;3.10;;;7.40;75.70;;;;;;5095918;28;20016;-82
2021/04/02 10:32:09;;;;;;;4.35;3.70;;;7.50;74.90;;;;;;5078307;28;20449;-82
2021/04/02 10:34:35;;;;;;;5.15;3.10;;;7.60;74.40;;;;;;5095662;28;20101;-81
2021/04/02 10:37:01;;;;;;;4.53;3.45;;;7.70;73.30;;;;;;5077919;28;20050;-83
2021/04/02 10:39:27;;;;;;;4.65;3.25;;;7.80;73.30;;;;;;5077785;28;20462;-81
2021/04/02 10:41:52;;;;;;;4.88;4.13;;;7.80;72.90;;;;;;5096006;28;20020;-81
2021/04/02 10:44:18;;;;;;;4.50;3.97;;;7.70;73.00;;;;;;5077964;28;20093;-81
2021/04/02 10:46:44;;;;;;;6.22;4.10;;;7.70;72.60;;;;;;5096825;28;20031;-82
2021/04/02 10:49:10;;;;;;;7.53;4.13;;;7.70;72.50;;;;;;5096628;28;20385;-83
2021/04/02 10:51:36;;;;;;;7.55;4.93;;;7.70;72.70;;;;;;5096115;28;20063;-84
2021/04/02 10:54:02;;;;;;;5.43;4.00;;;7.80;72.80;;;;;;5095516;28;20020;-83
2021/04/02 10:56:33;;;;;;;5.38;3.70;;;7.80;72.20;;;;;;5095589;28;20016;-83
2021/04/02 10:59:00;;;;;;;4.47;3.97;;;7.60;71.80;;;;;;5095433;28;20512;-83
2021/04/02 11:01:26;;;;;;;5.93;4.65;;;7.40;73.30;;;;;;5077717;28;20043;-82
2021/04/02 11:03:52;;;;;;;6.22;4.40;;;7.40;73.20;;;;;;5095345;28;20027;-83
2021/04/02 11:06:18;;;;;;;5.82;4.30;;;7.40;72.60;;;;;;5096158;28;20020;-84
2021/04/02 11:08:44;;;;;;;11.57;4.00;;;7.30;73.40;;;;;;5079088;28;20056;-83
2021/04/02 11:11:10;;;;;;;6.57;4.03;;;7.10;73.40;;;;;;5096448;28;20024;-82
2021/04/02 11:13:36;;;;;;;4.97;4.00;;;6.90;73.40;;;;;;5095378;28;20095;-83
2021/04/02 11:16:02;;;;;;;6.10;4.13;;;7.00;73.50;;;;;;5078810;28;20111;-81
2021/04/02 11:18:28;;;;;;;7.40;3.85;;;7.20;74.20;;;;;;5096267;28;20028;-80
2021/04/02 11:20:57;;;;;;;4.65;3.15;;;7.30;73.10;;;;;;5100776;28;20020;-81
2021/04/02 11:23:25;;;;;;;5.97;2.85;;;7.80;72.90;;;;;;5096681;28;20554;-83
2021/04/02 11:25:51;;;;;;;6.50;3.78;;;8.20;70.30;;;;;;5095223;28;20377;-84
2021/04/02 11:28:17;;;;;;;5.13;3.25;;;8.50;69.00;;;;;;5095304;28;20020;-81
2021/04/02 11:30:43;;;;;;;6.00;3.88;;;8.50;67.90;;;;;;5094925;28;20031;-83
2021/04/02 11:33:11;;;;;;;5.03;3.97;;;8.50;67.10;;;;;;5094705;28;20393;-82
2021/04/02 11:35:37;;;;;;;6.40;3.42;;;8.40;67.80;;;;;;5095093;28;20017;-80
2021/04/02 11:38:03;;;;;;;7.50;5.15;;;8.60;67.90;;;;;;5095542;28;20358;-81
2021/04/02 11:40:31;;;;;;;7.50;4.13;;;8.60;67.20;;;;;;5094857;28;20024;-82
2021/04/02 11:42:57;;;;;;;7.18;4.38;;;8.60;67.00;;;;;;5076558;28;20097;-81
2021/04/02 11:45:23;;;;;;;4.40;3.70;;;8.50;67.70;;;;;;5076314;28;20532;-82
2021/04/02 11:47:48;;;;;;;9.27;4.25;;;8.50;67.00;;;;;;5094802;28;20158;-82
2021/04/02 11:50:14;;;;;;;8.23;3.65;;;8.40;67.70;;;;;;5094619;28;20051;-81
2021/04/02 11:52:41;;;;;;;10.27;3.78;;;8.40;65.80;;;;;;5094687;28;20024;-82
2021/04/02 11:55:08;;;;;;;12.20;4.05;;;8.30;66.40;;;;;;5095502;28;20119;-81
2021/04/02 11:57:34;;;;;;;6.03;3.50;;;8.40;66.80;;;;;;5076258;28;20073;-81
2021/04/02 12:00:02;;;;;;;5.65;3.42;;;8.50;66.60;;;;;;5094824;28;20020;-82
2021/04/02 12:02:28;;;;;;;6.40;4.43;;;8.50;65.40;;;;;;5094865;28;20020;-81
2021/04/02 12:04:54;;;;;;;7.20;4.78;;;8.50;65.40;;;;;;5076437;28;20028;-81
2021/04/02 12:07:19;;;;;;;12.98;4.65;;;8.50;65.20;;;;;;5094473;28;20016;-83
2021/04/02 12:09:45;;;;;;;4.22;2.38;;;8.20;65.30;;;;;;5094146;28;20051;-82
2021/04/02 12:12:11;;;;;;;6.65;2.95;;;8.00;64.20;;;;;;5076305;28;20126;-80
2021/04/02 12:14:37;;;;;;;5.20;3.25;;;7.70;64.20;;;;;;5094130;28;20350;-82
2021/04/02 12:17:03;;;;;;;5.57;2.95;;;7.60;65.50;;;;;;5094245;28;20082;-83
2021/04/02 12:19:29;;;;;;;3.97;2.42;;;7.60;66.20;;;;;;5093945;28;20095;-81
2021/04/02 12:21:58;;;;;;;5.47;2.42;;;7.60;64.30;;;;;;5095027;28;20027;-82
2021/04/02 12:24:24;;;;;;;3.58;2.25;;;7.70;64.50;;;;;;5096267;28;20032;-82
2021/04/02 12:26:50;;;;;;;8.27;2.25;;;7.80;63.80;;;;;;5077704;28;20028;-82
2021/04/02 12:29:15;;;;;;;4.72;2.28;;;7.90;63.90;;;;;;5094826;28;20100;-82
2021/04/02 12:31:41;;;;;;;3.42;2.05;;;8.00;63.40;;;;;;5093556;28;20408;-82
2021/04/02 12:34:09;;;;;;;4.45;2.17;;;8.20;63.60;;;;;;5094139;28;20027;-82
2021/04/02 12:36:38;;;;;;;5.00;2.17;;;8.30;63.50;;;;;;5093483;28;20489;-82
2021/04/02 12:39:04;;;;;;;10.07;2.60;;;8.30;62.00;;;;;;5094248;28;20027;-81
2021/04/02 12:41:30;;;;;;;6.97;3.97;;;8.30;62.50;;;;;;5059010;28;20031;-83
2021/04/02 12:43:55;;;;;;;7.75;2.58;;;8.20;63.20;;;;;;5094029;28;20087;-82
2021/04/02 12:46:22;;;;;;;4.90;2.70;;;8.30;62.60;;;;;;5093544;28;20069;-81
2021/04/02 12:48:57;;;;;;;4.88;2.33;;;8.40;62.80;;;;;;5093235;28;20047;-82
2021/04/02 12:51:22;;;;;;;2.22;1.83;;;8.30;61.90;;;;;;5075106;28;20024;-81
2021/04/02 12:53:48;;;;;;;4.05;1.75;;;8.20;62.00;;;;;;5093372;28;20039;-81
2021/04/02 12:56:16;;;;;;;3.42;1.65;;;8.00;61.50;;;;;;5093986;28;20388;-83
2021/04/02 12:58:44;;;;;;;3.17;1.38;;;8.00;61.70;;;;;;5095421;28;20024;-82